sensor_id;sensor_type;location;lat;lon;timestamp;temperature;humidity
42615;DHT22;28754;47.700;7.924;2022-12-29T00:00:31;7.90;99.90
42615;DHT22;28754;47.700;7.924;2022-12-29T00:03:18;8.00;99.90
42615;DHT22;28754;47.700;7.924;2022-12-29T00:06:05;7.90;99.90
42615;DHT22;28754;47.700;7.924;2022-12-29T00:08:51;8.00;99.90
42615;DHT22;28754;47.700;7.924;2022-12-29T00:11:38;8.00;99.90
42615;DHT22;28754;47.700;7.924;2022-12-29T00:14:26;8.00;99.90
42615;DHT22;28754;47.700;7.924;2022-12-29T00:17:31;8.00;99.90
42615;DHT22;28754;47.700;7.924;2022-12-29T00:20:18;8.10;99.90
42615;DHT22;28754;47.700;7.924;2022-12-29T00:23:23;8.10;99.90
42615;DHT22;28754;47.700;7.924;2022-12-29T00:26:28;8.10;99.90
42615;DHT22;28754;47.700;7.924;2022-12-29T00:29:33;8.10;99.90
42615;DHT22;28754;47.700;7.924;2022-12-29T00:32:38;8.10;99.90
42615;DHT22;28754;47.700;7.924;2022-12-29T00:35:58;8.10;99.90
42615;DHT22;28754;47.700;7.924;2022-12-29T00:38:53;8.10;99.90
42615;DHT22;28754;47.700;7.924;2022-12-29T00:42:07;8.10;99.90
42615;DHT22;28754;47.700;7.924;2022-12-29T00:45:13;8.10;99.90
42615;DHT22;28754;47.700;7.924;2022-12-29T00:48:00;8.10;99.90
42615;DHT22;28754;47.700;7.924;2022-12-29T00:50:47;8.10;99.90
42615;DHT22;28754;47.700;7.924;2022-12-29T00:53:34;8.00;99.90
42615;DHT22;28754;47.700;7.924;2022-12-29T00:56:21;8.00;99.90
42615;DHT22;28754;47.700;7.924;2022-12-29T00:59:09;8.00;99.90
42615;DHT22;28754;47.700;7.924;2022-12-29T01:01:56;8.00;99.90
42615;DHT22;28754;47.700;7.924;2022-12-29T01:04:44;8.00;99.90
42615;DHT22;28754;47.700;7.924;2022-12-29T01:07:30;8.00;99.90
42615;DHT22;28754;47.700;7.924;2022-12-29T01:10:17;8.00;99.90
42615;DHT22;28754;47.700;7.924;2022-12-29T01:13:04;8.00;99.90
42615;DHT22;28754;47.700;7.924;2022-12-29T01:15:52;8.00;99.90
42615;DHT22;28754;47.700;7.924;2022-12-29T01:18:39;8.00;99.90
42615;DHT22;28754;47.700;7.924;2022-12-29T01:21:26;8.00;99.90
42615;DHT22;28754;47.700;7.924;2022-12-29T01:24:13;8.00;99.90
42615;DHT22;28754;47.700;7.924;2022-12-29T01:27:01;8.00;99.90
42615;DHT22;28754;47.700;7.924;2022-12-29T01:29:47;8.00;99.90
42615;DHT22;28754;47.700;7.924;2022-12-29T01:32:34;8.00;99.90
42615;DHT22;28754;47.700;7.924;2022-12-29T01:35:20;8.00;99.90
42615;DHT22;28754;47.700;7.924;2022-12-29T01:38:07;8.00;99.90
42615;DHT22;28754;47.700;7.924;2022-12-29T01:40:54;8.00;99.90
42615;DHT22;28754;47.700;7.924;2022-12-29T01:46:38;8.00;99.90
42615;DHT22;28754;47.700;7.924;2022-12-29T01:49:28;8.00;99.90
42615;DHT22;28754;47.700;7.924;2022-12-29T01:52:15;8.10;99.90
42615;DHT22;28754;47.700;7.924;2022-12-29T01:55:03;8.10;99.90
42615;DHT22;28754;47.700;7.924;2022-12-29T01:57:53;8.20;99.90
42615;DHT22;28754;47.700;7.924;2022-12-29T02:00:44;8.10;99.90
42615;DHT22;28754;47.700;7.924;2022-12-29T02:03:31;8.10;99.90
42615;DHT22;28754;47.700;7.924;2022-12-29T02:06:26;8.10;99.90
42615;DHT22;28754;47.700;7.924;2022-12-29T02:09:17;8.10;99.90
42615;DHT22;28754;47.700;7.924;2022-12-29T02:12:04;8.20;99.90
42615;DHT22;28754;47.700;7.924;2022-12-29T02:14:55;8.20;99.90
42615;DHT22;28754;47.700;7.924;2022-12-29T02:18:12;8.20;99.90
42615;DHT22;28754;47.700;7.924;2022-12-29T02:31:16;8.50;99.90
42615;DHT22;28754;47.700;7.924;2022-12-29T02:34:35;8.50;99.90
42615;DHT22;28754;47.700;7.924;2022-12-29T02:41:06;8.50;99.90
42615;DHT22;28754;47.700;7.924;2022-12-29T02:50:38;8.50;99.90
42615;DHT22;28754;47.700;7.924;2022-12-29T02:53:31;8.50;99.90
42615;DHT22;28754;47.700;7.924;2022-12-29T02:56:48;8.40;99.90
42615;DHT22;28754;47.700;7.924;2022-12-29T02:59:37;8.40;99.90
42615;DHT22;28754;47.700;7.924;2022-12-29T03:12:45;8.40;99.90
42615;DHT22;28754;47.700;7.924;2022-12-29T03:16:24;8.40;99.90
42615;DHT22;28754;47.700;7.924;2022-12-29T03:19:35;8.40;99.90
42615;DHT22;28754;47.700;7.924;2022-12-29T03:22:27;8.40;99.90
42615;DHT22;28754;47.700;7.924;2022-12-29T03:25:30;8.40;99.90
42615;DHT22;28754;47.700;7.924;2022-12-29T03:28:30;8.40;99.90
42615;DHT22;28754;47.700;7.924;2022-12-29T03:31:23;8.40;99.90
42615;DHT22;28754;47.700;7.924;2022-12-29T03:34:13;8.40;99.90
42615;DHT22;28754;47.700;7.924;2022-12-29T03:37:09;8.40;99.90
42615;DHT22;28754;47.700;7.924;2022-12-29T03:39:59;8.30;99.90
42615;DHT22;28754;47.700;7.924;2022-12-29T03:42:47;8.30;99.90
42615;DHT22;28754;47.700;7.924;2022-12-29T03:45:34;8.30;99.90
42615;DHT22;28754;47.700;7.924;2022-12-29T03:48:20;8.30;99.90
42615;DHT22;28754;47.700;7.924;2022-12-29T03:51:09;8.30;99.90
42615;DHT22;28754;47.700;7.924;2022-12-29T03:53:56;8.30;99.90
42615;DHT22;28754;47.700;7.924;2022-12-29T03:56:43;8.30;99.90
42615;DHT22;28754;47.700;7.924;2022-12-29T03:59:30;8.30;99.90
42615;DHT22;28754;47.700;7.924;2022-12-29T04:02:17;8.30;99.90
42615;DHT22;28754;47.700;7.924;2022-12-29T04:05:04;8.30;99.90
42615;DHT22;28754;47.700;7.924;2022-12-29T04:07:52;8.30;99.90
42615;DHT22;28754;47.700;7.924;2022-12-29T04:10:39;8.30;99.90
42615;DHT22;28754;47.700;7.924;2022-12-29T04:13:27;8.30;99.90
42615;DHT22;28754;47.700;7.924;2022-12-29T04:16:14;8.20;99.90
42615;DHT22;28754;47.700;7.924;2022-12-29T04:19:02;8.20;99.90
42615;DHT22;28754;47.700;7.924;2022-12-29T04:21:49;8.20;99.90
42615;DHT22;28754;47.700;7.924;2022-12-29T04:24:36;8.20;99.90
42615;DHT22;28754;47.700;7.924;2022-12-29T04:27:23;8.30;99.90
42615;DHT22;28754;47.700;7.924;2022-12-29T04:30:46;8.20;99.90
42615;DHT22;28754;47.700;7.924;2022-12-29T04:33:39;8.30;99.90
42615;DHT22;28754;47.700;7.924;2022-12-29T04:36:27;8.20;99.90
42615;DHT22;28754;47.700;7.924;2022-12-29T04:39:13;8.30;99.90
42615;DHT22;28754;47.700;7.924;2022-12-29T04:42:01;8.20;99.90
42615;DHT22;28754;47.700;7.924;2022-12-29T04:44:48;8.30;99.90
42615;DHT22;28754;47.700;7.924;2022-12-29T04:47:51;8.30;99.90
42615;DHT22;28754;47.700;7.924;2022-12-29T04:50:50;8.30;99.90
42615;DHT22;28754;47.700;7.924;2022-12-29T04:53:38;8.30;99.90
42615;DHT22;28754;47.700;7.924;2022-12-29T04:56:25;8.20;99.90
42615;DHT22;28754;47.700;7.924;2022-12-29T04:59:12;8.20;99.90
42615;DHT22;28754;47.700;7.924;2022-12-29T05:01:59;8.20;99.90
42615;DHT22;28754;47.700;7.924;2022-12-29T05:04:46;8.20;99.90
42615;DHT22;28754;47.700;7.924;2022-12-29T05:07:33;8.20;99.90
42615;DHT22;28754;47.700;7.924;2022-12-29T05:10:20;8.20;99.90
42615;DHT22;28754;47.700;7.924;2022-12-29T05:13:09;8.20;99.90
42615;DHT22;28754;47.700;7.924;2022-12-29T05:15:55;8.20;99.90
42615;DHT22;28754;47.700;7.924;2022-12-29T05:18:43;8.20;99.90
42615;DHT22;28754;47.700;7.924;2022-12-29T05:21:30;8.20;99.90
42615;DHT22;28754;47.700;7.924;2022-12-29T05:24:19;8.20;99.90
42615;DHT22;28754;47.700;7.924;2022-12-29T05:27:06;8.20;99.90
42615;DHT22;28754;47.700;7.924;2022-12-29T05:30:17;8.30;99.90
42615;DHT22;28754;47.700;7.924;2022-12-29T05:33:04;8.20;99.90
42615;DHT22;28754;47.700;7.924;2022-12-29T05:35:54;8.20;99.90
42615;DHT22;28754;47.700;7.924;2022-12-29T05:38:42;8.30;99.90
42615;DHT22;28754;47.700;7.924;2022-12-29T05:41:29;8.30;99.90
42615;DHT22;28754;47.700;7.924;2022-12-29T05:44:34;8.30;99.90
42615;DHT22;28754;47.700;7.924;2022-12-29T05:47:44;8.30;99.90
42615;DHT22;28754;47.700;7.924;2022-12-29T05:50:50;8.20;99.90
42615;DHT22;28754;47.700;7.924;2022-12-29T05:53:43;8.20;99.90
42615;DHT22;28754;47.700;7.924;2022-12-29T05:56:30;8.20;99.90
42615;DHT22;28754;47.700;7.924;2022-12-29T05:59:18;8.20;99.90
42615;DHT22;28754;47.700;7.924;2022-12-29T06:02:09;8.20;99.90
42615;DHT22;28754;47.700;7.924;2022-12-29T06:04:56;8.20;99.90
42615;DHT22;28754;47.700;7.924;2022-12-29T06:07:43;8.20;99.90
42615;DHT22;28754;47.700;7.924;2022-12-29T06:10:31;8.20;99.90
42615;DHT22;28754;47.700;7.924;2022-12-29T06:13:22;8.10;99.90
42615;DHT22;28754;47.700;7.924;2022-12-29T06:16:10;8.10;99.90
42615;DHT22;28754;47.700;7.924;2022-12-29T06:18:58;8.20;99.90
42615;DHT22;28754;47.700;7.924;2022-12-29T06:21:45;8.10;99.90
42615;DHT22;28754;47.700;7.924;2022-12-29T06:24:32;8.10;99.90
42615;DHT22;28754;47.700;7.924;2022-12-29T06:27:19;8.10;99.90
42615;DHT22;28754;47.700;7.924;2022-12-29T06:30:08;8.10;99.90
42615;DHT22;28754;47.700;7.924;2022-12-29T06:32:59;8.10;99.90
42615;DHT22;28754;47.700;7.924;2022-12-29T06:35:46;8.10;99.90
42615;DHT22;28754;47.700;7.924;2022-12-29T06:38:35;8.20;99.90
42615;DHT22;28754;47.700;7.924;2022-12-29T06:41:22;8.20;99.90
42615;DHT22;28754;47.700;7.924;2022-12-29T06:44:28;8.10;99.90
42615;DHT22;28754;47.700;7.924;2022-12-29T06:47:21;8.20;99.90
42615;DHT22;28754;47.700;7.924;2022-12-29T06:50:08;8.20;99.90
42615;DHT22;28754;47.700;7.924;2022-12-29T06:52:55;8.20;99.90
42615;DHT22;28754;47.700;7.924;2022-12-29T06:55:42;8.20;99.90
42615;DHT22;28754;47.700;7.924;2022-12-29T06:58:29;8.20;99.90
42615;DHT22;28754;47.700;7.924;2022-12-29T07:01:15;8.30;99.90
42615;DHT22;28754;47.700;7.924;2022-12-29T07:04:03;8.20;99.90
42615;DHT22;28754;47.700;7.924;2022-12-29T07:06:50;8.20;99.90
42615;DHT22;28754;47.700;7.924;2022-12-29T07:09:37;8.30;99.90
42615;DHT22;28754;47.700;7.924;2022-12-29T07:12:23;8.30;99.90
42615;DHT22;28754;47.700;7.924;2022-12-29T07:15:10;8.30;99.90
42615;DHT22;28754;47.700;7.924;2022-12-29T07:17:58;8.30;99.90
42615;DHT22;28754;47.700;7.924;2022-12-29T07:20:45;8.30;99.90
42615;DHT22;28754;47.700;7.924;2022-12-29T07:23:32;8.40;99.90
42615;DHT22;28754;47.700;7.924;2022-12-29T07:26:19;8.30;99.90
42615;DHT22;28754;47.700;7.924;2022-12-29T07:29:05;8.40;99.90
42615;DHT22;28754;47.700;7.924;2022-12-29T07:31:52;8.40;99.90
42615;DHT22;28754;47.700;7.924;2022-12-29T07:34:39;8.40;99.90
42615;DHT22;28754;47.700;7.924;2022-12-29T07:37:26;8.40;99.90
42615;DHT22;28754;47.700;7.924;2022-12-29T07:40:13;8.40;99.90
42615;DHT22;28754;47.700;7.924;2022-12-29T07:43:00;8.40;99.90
42615;DHT22;28754;47.700;7.924;2022-12-29T07:46:00;8.40;99.90
42615;DHT22;28754;47.700;7.924;2022-12-29T07:48:48;8.40;99.90
42615;DHT22;28754;47.700;7.924;2022-12-29T07:51:35;8.40;99.90
42615;DHT22;28754;47.700;7.924;2022-12-29T07:54:22;8.40;99.90
42615;DHT22;28754;47.700;7.924;2022-12-29T07:57:09;8.40;99.90
42615;DHT22;28754;47.700;7.924;2022-12-29T07:59:56;8.40;99.90
42615;DHT22;28754;47.700;7.924;2022-12-29T08:02:42;8.40;99.90
42615;DHT22;28754;47.700;7.924;2022-12-29T08:05:30;8.40;99.90
42615;DHT22;28754;47.700;7.924;2022-12-29T08:08:18;8.40;99.90
42615;DHT22;28754;47.700;7.924;2022-12-29T08:11:06;8.40;99.90
42615;DHT22;28754;47.700;7.924;2022-12-29T08:13:53;8.40;99.90
42615;DHT22;28754;47.700;7.924;2022-12-29T08:16:40;8.30;99.90
42615;DHT22;28754;47.700;7.924;2022-12-29T08:19:28;8.30;99.90
42615;DHT22;28754;47.700;7.924;2022-12-29T08:22:14;8.30;99.90
42615;DHT22;28754;47.700;7.924;2022-12-29T08:25:01;8.30;99.90
42615;DHT22;28754;47.700;7.924;2022-12-29T08:27:48;8.20;99.90
42615;DHT22;28754;47.700;7.924;2022-12-29T08:30:35;8.20;99.90
42615;DHT22;28754;47.700;7.924;2022-12-29T08:33:22;8.30;99.90
42615;DHT22;28754;47.700;7.924;2022-12-29T08:36:12;8.30;99.90
42615;DHT22;28754;47.700;7.924;2022-12-29T08:38:59;8.20;99.90
42615;DHT22;28754;47.700;7.924;2022-12-29T08:41:46;8.30;99.90
42615;DHT22;28754;47.700;7.924;2022-12-29T08:44:33;8.30;99.90
42615;DHT22;28754;47.700;7.924;2022-12-29T08:47:19;8.30;99.90
42615;DHT22;28754;47.700;7.924;2022-12-29T08:50:07;8.20;99.90
42615;DHT22;28754;47.700;7.924;2022-12-29T08:52:53;8.30;99.90
42615;DHT22;28754;47.700;7.924;2022-12-29T08:55:40;8.30;99.90
42615;DHT22;28754;47.700;7.924;2022-12-29T08:58:31;8.20;99.90
42615;DHT22;28754;47.700;7.924;2022-12-29T09:01:19;8.30;99.90
42615;DHT22;28754;47.700;7.924;2022-12-29T09:04:07;8.30;99.90
42615;DHT22;28754;47.700;7.924;2022-12-29T09:06:54;8.40;99.90
42615;DHT22;28754;47.700;7.924;2022-12-29T09:09:41;8.40;99.90
42615;DHT22;28754;47.700;7.924;2022-12-29T09:15:10;8.40;99.90
42615;DHT22;28754;47.700;7.924;2022-12-29T09:18:00;8.50;99.90
42615;DHT22;28754;47.700;7.924;2022-12-29T09:20:47;8.50;99.90
42615;DHT22;28754;47.700;7.924;2022-12-29T09:23:34;8.50;99.90
42615;DHT22;28754;47.700;7.924;2022-12-29T09:26:21;8.50;99.90
42615;DHT22;28754;47.700;7.924;2022-12-29T09:29:07;8.50;99.90
42615;DHT22;28754;47.700;7.924;2022-12-29T09:31:54;8.50;99.90
42615;DHT22;28754;47.700;7.924;2022-12-29T09:34:41;8.50;99.90
42615;DHT22;28754;47.700;7.924;2022-12-29T09:37:28;8.60;99.90
42615;DHT22;28754;47.700;7.924;2022-12-29T09:40:32;8.60;99.90
42615;DHT22;28754;47.700;7.924;2022-12-29T09:43:43;8.60;99.90
42615;DHT22;28754;47.700;7.924;2022-12-29T09:46:43;8.60;99.90
42615;DHT22;28754;47.700;7.924;2022-12-29T09:49:42;8.60;99.90
42615;DHT22;28754;47.700;7.924;2022-12-29T09:52:40;8.60;99.90
42615;DHT22;28754;47.700;7.924;2022-12-29T09:55:51;8.70;99.90
42615;DHT22;28754;47.700;7.924;2022-12-29T09:58:48;8.70;99.90
42615;DHT22;28754;47.700;7.924;2022-12-29T10:04:39;8.60;99.90
42615;DHT22;28754;47.700;7.924;2022-12-29T10:07:41;8.60;99.90
42615;DHT22;28754;47.700;7.924;2022-12-29T10:10:43;8.60;99.90
42615;DHT22;28754;47.700;7.924;2022-12-29T10:16:57;8.70;99.90
42615;DHT22;28754;47.700;7.924;2022-12-29T10:19:57;8.70;99.90
42615;DHT22;28754;47.700;7.924;2022-12-29T10:26:02;8.70;99.90
42615;DHT22;28754;47.700;7.924;2022-12-29T10:29:02;8.70;99.90
42615;DHT22;28754;47.700;7.924;2022-12-29T10:32:04;8.70;99.90
42615;DHT22;28754;47.700;7.924;2022-12-29T10:34:58;8.70;99.90
42615;DHT22;28754;47.700;7.924;2022-12-29T10:38:01;8.70;99.90
42615;DHT22;28754;47.700;7.924;2022-12-29T10:41:15;8.70;99.90
42615;DHT22;28754;47.700;7.924;2022-12-29T10:44:12;8.80;99.90
42615;DHT22;28754;47.700;7.924;2022-12-29T10:47:23;8.80;99.90
42615;DHT22;28754;47.700;7.924;2022-12-29T10:50:14;8.90;99.90
42615;DHT22;28754;47.700;7.924;2022-12-29T10:53:04;8.90;99.90
42615;DHT22;28754;47.700;7.924;2022-12-29T10:55:55;8.80;99.90
42615;DHT22;28754;47.700;7.924;2022-12-29T10:58:49;8.90;99.90
42615;DHT22;28754;47.700;7.924;2022-12-29T11:08:50;9.00;99.90
42615;DHT22;28754;47.700;7.924;2022-12-29T11:11:50;8.90;99.90
42615;DHT22;28754;47.700;7.924;2022-12-29T11:14:36;8.70;99.90
42615;DHT22;28754;47.700;7.924;2022-12-29T11:17:24;8.80;99.90
42615;DHT22;28754;47.700;7.924;2022-12-29T11:20:30;8.80;99.90
42615;DHT22;28754;47.700;7.924;2022-12-29T11:26:26;8.90;99.90
42615;DHT22;28754;47.700;7.924;2022-12-29T11:32:18;8.80;99.90
42615;DHT22;28754;47.700;7.924;2022-12-29T11:38:22;8.70;99.90
42615;DHT22;28754;47.700;7.924;2022-12-29T11:41:26;8.70;99.90
42615;DHT22;28754;47.700;7.924;2022-12-29T11:44:17;8.60;99.90
42615;DHT22;28754;47.700;7.924;2022-12-29T11:47:05;8.60;99.90
42615;DHT22;28754;47.700;7.924;2022-12-29T11:50:01;8.70;99.90
42615;DHT22;28754;47.700;7.924;2022-12-29T11:52:57;8.60;99.90
42615;DHT22;28754;47.700;7.924;2022-12-29T11:59:43;8.50;99.90
42615;DHT22;28754;47.700;7.924;2022-12-29T12:02:48;8.40;99.90
42615;DHT22;28754;47.700;7.924;2022-12-29T12:05:54;8.40;99.90
42615;DHT22;28754;47.700;7.924;2022-12-29T12:08:55;8.50;99.90
42615;DHT22;28754;47.700;7.924;2022-12-29T12:11:46;8.50;99.90
42615;DHT22;28754;47.700;7.924;2022-12-29T12:14:43;8.50;99.90
42615;DHT22;28754;47.700;7.924;2022-12-29T12:18:47;8.60;99.90
42615;DHT22;28754;47.700;7.924;2022-12-29T12:21:58;8.80;99.90
42615;DHT22;28754;47.700;7.924;2022-12-29T12:39:10;8.70;99.90
42615;DHT22;28754;47.700;7.924;2022-12-29T13:11:46;8.50;99.90
42615;DHT22;28754;47.700;7.924;2022-12-29T13:19:39;8.50;99.90
42615;DHT22;28754;47.700;7.924;2022-12-29T13:35:45;8.60;99.90
42615;DHT22;28754;47.700;7.924;2022-12-29T13:43:49;8.40;99.90
42615;DHT22;28754;47.700;7.924;2022-12-29T13:46:49;8.30;99.90
42615;DHT22;28754;47.700;7.924;2022-12-29T13:50:12;8.20;99.90
42615;DHT22;28754;47.700;7.924;2022-12-29T13:53:42;8.20;99.90
42615;DHT22;28754;47.700;7.924;2022-12-29T13:57:19;8.20;99.90
42615;DHT22;28754;47.700;7.924;2022-12-29T14:00:20;8.20;99.90
42615;DHT22;28754;47.700;7.924;2022-12-29T14:09:48;8.30;99.90
42615;DHT22;28754;47.700;7.924;2022-12-29T14:12:46;8.30;99.90
42615;DHT22;28754;47.700;7.924;2022-12-29T14:16:11;8.30;99.90
42615;DHT22;28754;47.700;7.924;2022-12-29T14:29:45;8.30;99.90
42615;DHT22;28754;47.700;7.924;2022-12-29T14:33:17;8.40;99.90
42615;DHT22;28754;47.700;7.924;2022-12-29T14:36:25;8.30;99.90
42615;DHT22;28754;47.700;7.924;2022-12-29T14:39:43;8.40;99.90
42615;DHT22;28754;47.700;7.924;2022-12-29T14:42:32;8.40;99.90
42615;DHT22;28754;47.700;7.924;2022-12-29T14:45:26;8.40;99.90
42615;DHT22;28754;47.700;7.924;2022-12-29T14:48:29;8.40;99.90
42615;DHT22;28754;47.700;7.924;2022-12-29T14:51:43;8.40;99.90
42615;DHT22;28754;47.700;7.924;2022-12-29T14:54:45;8.50;99.90
42615;DHT22;28754;47.700;7.924;2022-12-29T14:57:56;8.50;99.90
42615;DHT22;28754;47.700;7.924;2022-12-29T15:00:49;8.50;99.90
42615;DHT22;28754;47.700;7.924;2022-12-29T15:04:41;8.50;99.90
42615;DHT22;28754;47.700;7.924;2022-12-29T15:19:27;8.30;99.90
42615;DHT22;28754;47.700;7.924;2022-12-29T15:22:59;8.30;99.90
42615;DHT22;28754;47.700;7.924;2022-12-29T15:26:02;8.30;99.90
42615;DHT22;28754;47.700;7.924;2022-12-29T15:33:26;8.30;99.90
42615;DHT22;28754;47.700;7.924;2022-12-29T15:36:37;8.20;99.90
42615;DHT22;28754;47.700;7.924;2022-12-29T15:43:23;8.20;99.90
42615;DHT22;28754;47.700;7.924;2022-12-29T15:46:36;8.20;99.90
42615;DHT22;28754;47.700;7.924;2022-12-29T15:49:23;8.20;99.90
42615;DHT22;28754;47.700;7.924;2022-12-29T15:52:21;8.20;99.90
42615;DHT22;28754;47.700;7.924;2022-12-29T15:58:28;8.10;99.90
42615;DHT22;28754;47.700;7.924;2022-12-29T16:01:33;8.10;99.90
42615;DHT22;28754;47.700;7.924;2022-12-29T16:04:23;8.10;99.90
42615;DHT22;28754;47.700;7.924;2022-12-29T16:07:30;8.10;99.90
42615;DHT22;28754;47.700;7.924;2022-12-29T16:10:39;8.10;99.90
42615;DHT22;28754;47.700;7.924;2022-12-29T16:13:40;8.10;99.90
42615;DHT22;28754;47.700;7.924;2022-12-29T16:16:35;8.10;99.90
42615;DHT22;28754;47.700;7.924;2022-12-29T16:19:47;8.10;99.90
42615;DHT22;28754;47.700;7.924;2022-12-29T16:22:57;8.10;99.90
42615;DHT22;28754;47.700;7.924;2022-12-29T16:25:47;8.10;99.90
42615;DHT22;28754;47.700;7.924;2022-12-29T16:28:40;8.00;99.90
42615;DHT22;28754;47.700;7.924;2022-12-29T16:31:50;8.00;99.90
42615;DHT22;28754;47.700;7.924;2022-12-29T16:34:46;7.90;99.90
42615;DHT22;28754;47.700;7.924;2022-12-29T16:41:32;7.80;99.90
42615;DHT22;28754;47.700;7.924;2022-12-29T16:44:41;7.80;99.90
